Time;durP1;ratioP1;P1;durP2;ratioP2;P2;SDS_P1;SDS_P2;PMS_P1;PMS_P2;Temp;Humidity;BMP_temperature;BMP_pressure;BME280_temperature;BME280_humidity;BME280_pressure;Samples;Min_cycle;Max_cycle;Signal;HPM_P1;HPM_P2
2022/06/04 00:00:10;;;;;;;8.17;6.37;;;11.20;99.90;;;;;;5069916;28;20213;-73
2022/06/04 00:02:43;;;;;;;7.57;6.80;;;11.20;99.90;;;;;;5068365;28;20447;-75
2022/06/04 00:05:11;;;;;;;12.20;7.43;;;11.10;99.90;;;;;;5070226;28;20485;-69
2022/06/04 00:07:37;;;;;;;15.03;6.43;;;11.10;99.90;;;;;;5069478;28;20903;-76
2022/06/04 00:15:39;;;;;;;6.43;5.80;;;11.00;99.90;;;;;;5065550;28;20504;-76
2022/06/04 00:18:05;;;;;;;7.10;6.40;;;11.00;99.90;;;;;;5062883;28;20514;-75
2022/06/04 00:20:31;;;;;;;8.40;6.40;;;10.90;99.90;;;;;;5071520;28;20174;-76
2022/06/04 00:23:05;;;;;;;5.97;5.40;;;10.90;99.90;;;;;;5071362;28;20202;-70
2022/06/04 00:25:31;;;;;;;7.70;6.00;;;10.90;99.90;;;;;;5067274;28;20449;-76
2022/06/04 00:28:02;;;;;;;15.30;6.87;;;10.90;99.90;;;;;;5067871;28;20422;-70
2022/06/04 00:30:28;;;;;;;10.90;6.93;;;10.90;99.90;;;;;;5071548;28;20407;-76
2022/06/04 00:32:54;;;;;;;6.50;5.90;;;10.80;99.90;;;;;;5069875;28;20415;-76
2022/06/04 00:35:20;;;;;;;6.70;6.10;;;10.80;99.90;;;;;;5053718;28;20549;-69
2022/06/04 00:37:48;;;;;;;9.27;7.13;;;10.80;99.90;;;;;;5068855;28;20520;-73
2022/06/04 00:40:25;;;;;;;6.70;6.00;;;10.70;99.90;;;;;;5057842;28;20786;-76
2022/06/04 00:42:50;;;;;;;5.90;5.30;;;10.70;99.90;;;;;;5055444;28;20986;-70
2022/06/04 00:45:34;;;;;;;7.13;6.43;;;10.70;99.90;;;;;;5051904;28;20415;-75
2022/06/04 00:48:05;;;;;;;7.10;6.10;;;10.60;99.90;;;;;;5053444;28;20209;-75
2022/06/04 00:50:34;;;;;;;6.77;5.90;;;10.60;99.90;;;;;;5069666;28;20489;-76
2022/06/04 00:53:02;;;;;;;5.13;4.73;;;10.60;99.90;;;;;;5072269;28;20401;-70
2022/06/04 00:55:53;;;;;;;6.13;5.50;;;10.50;99.90;;;;;;5059444;28;20428;-76
2022/06/04 00:58:32;;;;;;;7.47;5.73;;;10.50;99.90;;;;;;5072643;28;20463;-69
2022/06/04 01:01:09;;;;;;;6.50;5.90;;;10.50;99.90;;;;;;5067675;28;20772;-69
2022/06/04 01:04:04;;;;;;;6.90;6.20;;;10.40;99.90;;;;;;5063315;28;20798;-69
2022/06/04 01:06:49;;;;;;;6.27;5.53;;;10.40;99.90;;;;;;5066984;28;20401;-71
2022/06/04 01:09:46;;;;;;;8.83;4.57;;;10.30;99.90;;;;;;5067504;28;20440;-73
2022/06/04 01:12:45;;;;;;;12.30;6.80;;;10.30;99.90;;;;;;5074660;28;20428;-70
2022/06/04 01:15:13;;;;;;;5.83;5.10;;;10.30;99.90;;;;;;5072624;28;20436;-76
2022/06/04 01:17:59;;;;;;;6.90;5.50;;;10.20;99.90;;;;;;5074723;28;20859;-76
2022/06/04 01:20:55;;;;;;;7.67;5.23;;;10.30;99.90;;;;;;5074480;28;20434;-70
2022/06/04 01:23:49;;;;;;;6.67;6.03;;;10.20;99.90;;;;;;5067010;28;20464;-77
2022/06/04 01:26:51;;;;;;;12.77;6.37;;;10.20;99.90;;;;;;5074300;28;20486;-76
2022/06/04 01:29:54;;;;;;;6.07;5.47;;;10.30;99.90;;;;;;5074204;28;20577;-70
2022/06/04 01:32:58;;;;;;;5.90;5.00;;;10.30;99.90;;;;;;5055991;28;20937;-75
2022/06/04 01:35:44;;;;;;;5.83;5.30;;;10.30;99.90;;;;;;5043231;28;20399;-74
2022/06/04 01:38:20;;;;;;;7.03;5.30;;;10.30;99.90;;;;;;5066711;28;20440;-70
2022/06/04 01:41:06;;;;;;;6.50;5.90;;;10.40;1.00;;;;;;5057248;28;20442;-76
2022/06/04 01:44:13;;;;;;;6.47;5.70;;;10.50;1.00;;;;;;5073958;28;20542;-70
2022/06/04 01:46:51;;;;;;;10.63;6.00;;;10.60;1.00;;;;;;5058604;28;20452;-70
2022/06/04 01:49:31;;;;;;;7.73;6.60;;;10.60;1.00;;;;;;5071771;28;20440;-76
2022/06/04 01:52:03;;;;;;;6.00;5.40;;;10.70;1.00;;;;;;5054397;28;20409;-70
2022/06/04 01:54:35;;;;;;;6.40;5.03;;;10.80;1.00;;;;;;5064833;28;20508;-70
2022/06/04 01:57:11;;;;;;;6.73;6.03;;;10.80;1.00;;;;;;5065198;28;20444;-70
2022/06/04 01:59:42;;;;;;;7.40;5.63;;;10.90;1.00;;;;;;5066436;28;20466;-69
2022/06/04 02:02:13;;;;;;;6.67;5.40;;;11.00;1.00;;;;;;5057162;28;20823;-77
2022/06/04 02:04:44;;;;;;;6.07;5.57;;;11.10;1.00;;;;;;5068772;28;20453;-76
2022/06/04 02:07:30;;;;;;;6.33;5.70;;;11.10;1.00;;;;;;5054564;28;20900;-71
2022/06/04 02:10:27;;;;;;;6.57;5.70;;;11.20;1.00;;;;;;5058931;28;20820;-71
2022/06/04 02:12:57;;;;;;;6.83;5.43;;;11.20;1.00;;;;;;5072095;28;20486;-77
2022/06/04 02:15:28;;;;;;;6.00;5.50;;;11.20;1.00;;;;;;5073650;28;20428;-76
2022/06/04 02:17:57;;;;;;;7.30;6.30;;;11.20;1.00;;;;;;5072446;28;20399;-70
2022/06/04 02:20:25;;;;;;;7.10;5.70;;;11.20;1.00;;;;;;5070469;28;20419;-74
2022/06/04 02:22:51;;;;;;;6.03;5.43;;;11.20;1.00;;;;;;5059009;28;20423;-72
2022/06/04 02:25:17;;;;;;;7.50;5.80;;;11.20;1.00;;;;;;5054934;28;20407;-70
2022/06/04 02:27:43;;;;;;;9.47;5.53;;;11.30;1.00;;;;;;5057059;28;20420;-76
2022/06/04 02:30:12;;;;;;;5.77;5.17;;;11.30;1.00;;;;;;5072712;28;20182;-77
2022/06/04 02:32:37;;;;;;;6.40;4.93;;;11.30;1.00;;;;;;5071934;28;20406;-76
2022/06/04 02:35:07;;;;;;;5.93;5.33;;;11.30;1.00;;;;;;5067272;28;20490;-76
2022/06/04 02:37:53;;;;;;;7.53;6.20;;;11.30;1.00;;;;;;5053144;28;20175;-76
2022/06/04 02:40:25;;;;;;;7.50;6.00;;;11.30;1.00;;;;;;5056164;28;20797;-70
2022/06/04 02:43:01;;;;;;;6.97;6.13;;;11.40;1.00;;;;;;5060171;28;20439;-70
2022/06/04 02:45:41;;;;;;;6.13;5.53;;;11.40;1.00;;;;;;5072779;28;20493;-70
2022/06/04 02:48:18;;;;;;;7.47;6.00;;;11.40;1.00;;;;;;5062478;28;20444;-74
2022/06/04 02:50:59;;;;;;;6.10;5.50;;;11.40;1.00;;;;;;5072863;28;20439;-70
2022/06/04 02:53:29;;;;;;;6.10;5.10;;;11.40;1.00;;;;;;5071048;28;20424;-76
2022/06/04 02:56:18;;;;;;;5.67;5.17;;;11.40;1.00;;;;;;5056828;28;20985;-76
2022/06/04 02:58:49;;;;;;;6.43;5.83;;;11.40;1.00;;;;;;5055696;28;20508;-71
2022/06/04 03:01:18;;;;;;;6.80;6.20;;;11.40;1.00;;;;;;5062927;28;20420;-71
2022/06/04 03:03:44;;;;;;;7.20;5.33;;;11.40;1.00;;;;;;5066658;28;20436;-77
2022/06/04 03:06:25;;;;;;;6.93;6.23;;;11.40;1.00;;;;;;5060246;28;20426;-72
2022/06/04 03:08:52;;;;;;;7.20;5.60;;;11.40;1.00;;;;;;5064192;28;20539;-70
2022/06/04 03:11:18;;;;;;;9.07;6.33;;;11.40;1.00;;;;;;5052932;28;20756;-69
2022/06/04 03:13:45;;;;;;;7.47;6.67;;;11.50;1.00;;;;;;5053474;28;20451;-77
2022/06/04 03:16:13;;;;;;;6.70;5.70;;;11.50;1.00;;;;;;5069883;28;20423;-70
2022/06/04 03:18:38;;;;;;;6.10;5.50;;;11.50;1.00;;;;;;5071197;28;20460;-77
2022/06/04 03:21:05;;;;;;;6.60;6.00;;;11.50;1.00;;;;;;5056218;28;20891;-76
2022/06/04 03:23:31;;;;;;;6.03;5.43;;;11.40;1.00;;;;;;5053076;28;20206;-68
2022/06/04 03:25:56;;;;;;;9.50;6.23;;;11.40;1.00;;;;;;5067292;28;20403;-70
2022/06/04 03:28:22;;;;;;;6.77;5.33;;;11.40;1.00;;;;;;5068299;28;20435;-70
2022/06/04 03:30:48;;;;;;;7.40;5.67;;;11.50;1.00;;;;;;5058670;28;20166;-70
2022/06/04 03:33:14;;;;;;;6.30;5.30;;;11.40;1.00;;;;;;5070839;28;20444;-75
2022/06/04 03:35:42;;;;;;;7.37;5.80;;;11.40;1.00;;;;;;5073360;28;20166;-70
2022/06/04 03:38:08;;;;;;;8.33;6.07;;;11.40;1.00;;;;;;5063676;28;20544;-76
2022/06/04 03:40:34;;;;;;;8.60;6.27;;;11.40;1.00;;;;;;5052542;28;20412;-76
2022/06/04 03:43:00;;;;;;;6.97;6.37;;;11.40;1.00;;;;;;5060327;28;20467;-70
2022/06/04 03:45:26;;;;;;;7.33;6.50;;;11.40;1.00;;;;;;5067785;28;20178;-76
2022/06/04 03:47:54;;;;;;;6.70;5.77;;;11.50;1.00;;;;;;5052324;28;20190;-76
2022/06/04 03:50:20;;;;;;;5.53;5.10;;;11.50;1.00;;;;;;5063588;28;20428;-70
2022/06/04 03:52:47;;;;;;;7.03;6.33;;;11.50;1.00;;;;;;5063810;28;20498;-69
2022/06/04 03:55:14;;;;;;;6.70;6.07;;;11.50;1.00;;;;;;5061275;28;20952;-72
2022/06/04 03:57:50;;;;;;;8.77;6.33;;;11.50;1.00;;;;;;5067821;28;20448;-77
2022/06/04 04:00:28;;;;;;;6.10;5.50;;;11.60;1.00;;;;;;5071823;28;20428;-70
2022/06/04 04:03:04;;;;;;;5.93;5.27;;;11.50;1.00;;;;;;5069275;28;20460;-70
2022/06/04 04:05:33;;;;;;;7.47;6.17;;;11.60;1.00;;;;;;5060381;28;20936;-70
2022/06/04 04:08:01;;;;;;;6.07;5.57;;;11.60;1.00;;;;;;5063478;28;20771;-70
2022/06/04 04:10:28;;;;;;;5.83;5.20;;;11.60;1.00;;;;;;5070728;28;20424;-70
2022/06/04 04:12:54;;;;;;;5.93;5.10;;;11.60;1.00;;;;;;5071506;28;20428;-77
2022/06/04 04:15:21;;;;;;;6.27;5.67;;;11.60;1.00;;;;;;5062670;28;20398;-71
2022/06/04 04:17:47;;;;;;;9.47;5.87;;;11.60;1.00;;;;;;5069496;28;20436;-70
2022/06/04 04:20:20;;;;;;;7.13;6.50;;;11.60;1.00;;;;;;5064798;28;20448;-69
2022/06/04 04:22:46;;;;;;;6.40;5.80;;;11.60;1.00;;;;;;5073849;28;20443;-76
2022/06/04 04:25:14;;;;;;;7.50;6.43;;;11.60;1.00;;;;;;5074391;28;20770;-70
2022/06/04 04:27:40;;;;;;;6.17;5.60;;;11.60;1.00;;;;;;5074971;28;20395;-76
2022/06/04 04:30:08;;;;;;;7.70;5.10;;;11.60;1.00;;;;;;5074190;28;20481;-76
2022/06/04 04:32:33;;;;;;;7.83;5.80;;;11.60;1.00;;;;;;5075538;28;20408;-76
2022/06/04 04:35:00;;;;;;;8.93;5.23;;;11.60;1.00;;;;;;5056779;28;20822;-70
2022/06/04 04:37:26;;;;;;;5.83;5.23;;;11.60;1.00;;;;;;5074689;28;20181;-77
2022/06/04 04:39:51;;;;;;;6.33;5.80;;;11.60;1.00;;;;;;5063270;28;20451;-71
2022/06/04 04:42:17;;;;;;;8.03;5.23;;;11.60;1.00;;;;;;5075381;28;20197;-70
2022/06/04 04:44:43;;;;;;;8.20;5.50;;;11.60;1.00;;;;;;5065912;28;20167;-73
2022/06/04 04:47:09;;;;;;;5.87;5.17;;;11.70;1.00;;;;;;5055541;28;20627;-72
2022/06/04 04:49:35;;;;;;;6.30;5.43;;;11.80;1.00;;;;;;5055174;28;20199;-76
2022/06/04 04:52:00;;;;;;;7.33;5.70;;;11.90;1.00;;;;;;5068274;28;20178;-71
2022/06/04 04:54:28;;;;;;;7.63;4.80;;;11.90;1.00;;;;;;5075634;28;20486;-66
2022/06/04 04:56:53;;;;;;;9.07;6.30;;;12.00;1.00;;;;;;5073706;28;20174;-67
2022/06/04 04:59:19;;;;;;;8.20;5.67;;;12.00;1.00;;;;;;5075869;28;20460;-74
2022/06/04 05:01:45;;;;;;;7.20;6.33;;;12.10;1.00;;;;;;5075865;28;20585;-74
2022/06/04 05:04:11;;;;;;;7.33;5.90;;;12.10;1.00;;;;;;5074305;28;20643;-67
2022/06/04 05:06:37;;;;;;;7.20;5.80;;;12.20;1.00;;;;;;5074681;28;20173;-67
2022/06/04 05:09:03;;;;;;;6.70;5.70;;;12.30;1.00;;;;;;5075588;28;20235;-74
2022/06/04 05:11:31;;;;;;;8.37;6.30;;;12.40;1.00;;;;;;5075343;28;20224;-66
2022/06/04 05:13:59;;;;;;;6.43;5.77;;;12.30;1.00;;;;;;5075348;28;20387;-67
2022/06/04 05:16:28;;;;;;;7.80;5.33;;;12.40;1.00;;;;;;5075510;28;20408;-75
2022/06/04 05:18:54;;;;;;;5.10;4.43;;;12.40;1.00;;;;;;5073971;28;20434;-67
2022/06/04 05:21:41;;;;;;;7.93;5.20;;;12.40;1.00;;;;;;5075354;28;20900;-67
2022/06/04 05:24:20;;;;;;;6.13;5.43;;;12.30;1.00;;;;;;5075219;28;20185;-68
2022/06/04 05:26:47;;;;;;;8.13;5.07;;;12.40;1.00;;;;;;5054587;28;20402;-75
2022/06/04 05:29:13;;;;;;;8.50;6.30;;;12.50;1.00;;;;;;5066127;28;20571;-72
2022/06/04 05:31:40;;;;;;;5.50;5.00;;;12.60;1.00;;;;;;5073956;28;20478;-69
2022/06/04 05:34:07;;;;;;;9.00;5.73;;;12.70;1.00;;;;;;5074057;28;20378;-67
2022/06/04 05:36:32;;;;;;;5.70;4.90;;;12.70;1.00;;;;;;5074216;28;20417;-74
2022/06/04 05:38:58;;;;;;;9.60;6.60;;;12.70;1.00;;;;;;5074981;28;20891;-72
2022/06/04 05:41:25;;;;;;;5.90;5.30;;;12.70;1.00;;;;;;5074257;28;20483;-71
2022/06/04 05:43:52;;;;;;;6.40;5.10;;;12.70;1.00;;;;;;5075112;28;20249;-73
2022/06/04 05:46:19;;;;;;;5.97;5.40;;;12.70;1.00;;;;;;5073440;28;21003;-68
2022/06/04 05:48:47;;;;;;;5.77;5.20;;;12.70;1.00;;;;;;5054285;28;20400;-73
2022/06/04 05:51:17;;;;;;;5.57;5.07;;;12.60;1.00;;;;;;5065063;28;20516;-74
2022/06/04 05:53:43;;;;;;;7.30;6.03;;;12.80;1.00;;;;;;5075119;28;20406;-67
2022/06/04 05:56:20;;;;;;;7.90;7.20;;;12.90;1.00;;;;;;5074984;28;20397;-67
2022/06/04 05:58:48;;;;;;;7.93;7.23;;;12.90;1.00;;;;;;5074151;28;20448;-74
2022/06/04 06:01:15;;;;;;;7.03;6.43;;;12.90;1.00;;;;;;5073654;28;20403;-71
2022/06/04 06:03:41;;;;;;;8.77;7.97;;;13.00;1.00;;;;;;5074983;28;20511;-74
2022/06/04 06:06:12;;;;;;;6.17;5.57;;;12.90;1.00;;;;;;5074775;28;20815;-67
2022/06/04 06:08:38;;;;;;;6.33;5.30;;;12.90;1.00;;;;;;5073192;28;20391;-75
2022/06/04 06:11:09;;;;;;;6.80;5.07;;;12.90;1.00;;;;;;5074819;28;20379;-67
2022/06/04 06:13:35;;;;;;;5.27;4.77;;;12.90;1.00;;;;;;5073301;28;20166;-67
2022/06/04 06:16:09;;;;;;;8.03;4.90;;;13.00;1.00;;;;;;5074619;28;20441;-68
2022/06/04 06:18:35;;;;;;;4.93;4.40;;;13.10;1.00;;;;;;5073408;28;20447;-67
2022/06/04 06:21:09;;;;;;;9.23;4.77;;;13.20;1.00;;;;;;5074654;28;20546;-74
2022/06/04 06:23:35;;;;;;;7.27;5.30;;;13.20;1.00;;;;;;5074379;28;20418;-74
2022/06/04 06:26:16;;;;;;;8.37;5.70;;;13.10;1.00;;;;;;5074434;28;20890;-67
2022/06/04 06:28:43;;;;;;;6.73;4.80;;;13.10;1.00;;;;;;5070022;28;20448;-74
2022/06/04 06:31:11;;;;;;;8.13;5.40;;;13.10;1.00;;;;;;5072911;28;21016;-74
2022/06/04 06:33:37;;;;;;;8.07;5.77;;;13.00;1.00;;;;;;5074267;28;20421;-68
2022/06/04 06:36:06;;;;;;;8.17;5.70;;;13.00;1.00;;;;;;5074235;28;20401;-67
2022/06/04 06:38:33;;;;;;;5.70;5.13;;;13.10;1.00;;;;;;5073203;28;20198;-68
2022/06/04 06:40:59;;;;;;;6.67;5.33;;;13.10;1.00;;;;;;5074155;28;20624;-75
2022/06/04 06:46:07;;;;;;;7.67;4.10;;;13.30;1.00;;;;;;5073503;28;20375;-68
2022/06/04 06:48:34;;;;;;;5.50;4.97;;;13.50;1.00;;;;;;5072897;28;20790;-67
2022/06/04 06:51:12;;;;;;;5.23;4.73;;;13.50;1.00;;;;;;5073917;28;20412;-74
2022/06/04 06:53:37;;;;;;;5.23;4.73;;;13.50;1.00;;;;;;5073680;28;20422;-67
2022/06/04 06:56:09;;;;;;;6.10;4.70;;;13.50;1.00;;;;;;5072511;28;20437;-74
2022/06/04 06:58:35;;;;;;;7.33;5.00;;;13.50;1.00;;;;;;5072683;28;20251;-73
2022/06/04 07:01:01;;;;;;;6.90;4.33;;;13.60;1.00;;;;;;5073754;28;20409;-67
2022/06/04 07:03:26;;;;;;;6.80;5.27;;;13.60;1.00;;;;;;5073583;28;20655;-69
2022/06/04 07:05:53;;;;;;;8.80;5.70;;;13.60;1.00;;;;;;5070687;28;20675;-73
2022/06/04 07:08:20;;;;;;;5.03;4.53;;;13.70;1.00;;;;;;5072689;28;20197;-75
2022/06/04 07:10:46;;;;;;;4.17;3.80;;;13.90;1.00;;;;;;5073435;28;20416;-74
2022/06/04 07:13:18;;;;;;;5.30;4.80;;;14.00;99.90;;;;;;5073629;28;20437;-72
2022/06/04 07:15:43;;;;;;;4.60;4.20;;;14.10;99.90;;;;;;5071324;28;20182;-75
2022/06/04 07:18:13;;;;;;;5.33;4.67;;;14.30;99.90;;;;;;5072350;28;20428;-67
2022/06/04 07:20:40;;;;;;;6.40;4.57;;;14.40;99.90;;;;;;5072342;28;20194;-67
2022/06/04 07:23:06;;;;;;;5.13;4.63;;;14.20;99.90;;;;;;5073191;28;20433;-67
2022/06/04 07:25:33;;;;;;;4.97;4.57;;;14.30;99.90;;;;;;5072728;28;20436;-67
2022/06/04 07:27:59;;;;;;;5.13;4.63;;;14.40;99.90;;;;;;5072442;28;20452;-75
2022/06/04 07:30:25;;;;;;;6.27;4.50;;;14.50;99.90;;;;;;5073431;28;20401;-75
2022/06/04 07:32:52;;;;;;;4.57;4.17;;;14.50;99.90;;;;;;5073225;28;20492;-68
2022/06/04 07:35:18;;;;;;;5.93;4.37;;;14.40;99.90;;;;;;5071936;28;20182;-67
2022/06/04 07:37:44;;;;;;;10.00;4.70;;;14.10;99.90;;;;;;5072251;28;20409;-67
2022/06/04 07:40:10;;;;;;;5.63;4.40;;;14.10;99.90;;;;;;5073154;28;20186;-74
2022/06/04 07:42:36;;;;;;;7.40;4.50;;;14.30;99.90;;;;;;5071301;28;20255;-68
2022/06/04 07:45:02;;;;;;;6.43;4.03;;;14.30;99.90;;;;;;5073085;28;20738;-75
2022/06/04 07:47:28;;;;;;;4.43;4.03;;;14.30;99.90;;;;;;5071419;28;20397;-70
2022/06/04 07:49:57;;;;;;;4.77;3.80;;;14.30;99.90;;;;;;5074726;28;20443;-74
2022/06/04 07:52:23;;;;;;;5.13;4.63;;;14.30;99.90;;;;;;5073124;28;20169;-67
2022/06/04 07:54:49;;;;;;;4.30;3.90;;;14.40;99.90;;;;;;5072973;28;20491;-75
2022/06/04 07:57:15;;;;;;;5.03;4.53;;;14.60;99.90;;;;;;5069794;28;20435;-73
2022/06/04 07:59:42;;;;;;;5.93;4.83;;;14.70;99.90;;;;;;5072938;28;20439;-66
2022/06/04 08:02:10;;;;;;;5.60;5.10;;;14.70;99.90;;;;;;5072303;28;20456;-67
2022/06/04 08:04:36;;;;;;;5.53;5.03;;;14.50;99.90;;;;;;5071525;28;20414;-73
2022/06/04 08:07:04;;;;;;;4.43;4.03;;;14.40;99.90;;;;;;5071961;28;20401;-74
2022/06/04 08:09:31;;;;;;;4.43;4.00;;;14.40;99.90;;;;;;5072691;28;20411;-67
2022/06/04 08:11:57;;;;;;;7.10;5.60;;;14.40;99.90;;;;;;5072816;28;20404;-67
2022/06/04 08:14:24;;;;;;;6.63;3.90;;;14.40;99.90;;;;;;5072793;28;20534;-67
2022/06/04 08:16:52;;;;;;;4.40;4.00;;;14.30;99.90;;;;;;5071838;28;20178;-74
2022/06/04 08:19:19;;;;;;;7.00;5.50;;;14.20;99.90;;;;;;5072145;28;20448;-73
2022/06/04 08:21:45;;;;;;;5.17;4.10;;;14.20;99.90;;;;;;5071264;28;20471;-67
2022/06/04 08:24:12;;;;;;;4.77;4.27;;;14.30;99.90;;;;;;5071729;28;20507;-75
2022/06/04 08:26:41;;;;;;;4.60;4.20;;;14.40;99.90;;;;;;5071829;28;20896;-67
2022/06/04 08:29:07;;;;;;;7.30;4.50;;;14.40;99.90;;;;;;5073284;28;20482;-67
2022/06/04 08:31:33;;;;;;;5.00;4.60;;;14.70;99.90;;;;;;5072485;28;20397;-67
2022/06/04 08:33:59;;;;;;;6.40;5.20;;;14.90;99.90;;;;;;5072549;28;20397;-67
2022/06/04 08:36:25;;;;;;;4.60;4.20;;;15.30;99.90;;;;;;5072442;28;20216;-67
2022/06/04 08:38:51;;;;;;;4.60;4.20;;;15.50;99.90;;;;;;5070552;28;20528;-74
2022/06/04 08:41:44;;;;;;;5.07;4.57;;;16.00;99.90;;;;;;5071840;28;20427;-68
2022/06/04 08:44:31;;;;;;;4.40;3.70;;;16.40;99.90;;;;;;5072569;28;20623;-74
2022/06/04 08:47:25;;;;;;;3.80;3.50;;;16.80;99.90;;;;;;5071639;28;20430;-67
2022/06/04 08:50:04;;;;;;;6.00;3.90;;;16.90;99.90;;;;;;5072405;28;20515;-72
2022/06/04 08:52:40;;;;;;;5.47;3.73;;;16.70;99.90;;;;;;5072621;28;20400;-67
2022/06/04 08:58:38;;;;;;;4.70;4.30;;;16.10;99.90;;;;;;5071322;28;20455;-69
2022/06/04 09:01:09;;;;;;;4.70;4.30;;;15.50;99.90;;;;;;5072307;28;20772;-70
2022/06/04 09:03:58;;;;;;;4.83;4.33;;;15.50;99.90;;;;;;5072239;28;20466;-67
2022/06/04 09:06:55;;;;;;;7.60;4.37;;;15.40;99.90;;;;;;5072069;28;20419;-67
2022/06/04 09:09:36;;;;;;;5.13;4.63;;;15.70;99.90;;;;;;5073718;28;20463;-74
2022/06/04 09:12:12;;;;;;;4.80;4.40;;;16.10;99.90;;;;;;5055813;28;20409;-67
2022/06/04 09:14:51;;;;;;;7.13;3.87;;;16.60;99.90;;;;;;5055603;28;20409;-67
2022/06/04 09:17:36;;;;;;;5.50;4.00;;;17.00;99.90;;;;;;5061236;28;20432;-67
2022/06/04 09:20:08;;;;;;;4.20;3.83;;;17.50;99.90;;;;;;5075456;28;20524;-75
2022/06/04 09:22:40;;;;;;;6.60;5.00;;;17.60;99.90;;;;;;5075634;28;20857;-67
2022/06/04 09:25:12;;;;;;;8.77;4.90;;;17.80;99.90;;;;;;5075779;28;20429;-74
2022/06/04 09:28:03;;;;;;;6.20;4.10;;;17.90;99.90;;;;;;5074661;28;20407;-71
2022/06/04 09:30:32;;;;;;;4.60;4.20;;;18.00;99.90;;;;;;5074935;28;20415;-70
2022/06/04 09:33:22;;;;;;;3.80;3.50;;;18.20;99.90;;;;;;5075721;28;20487;-75
2022/06/04 09:35:48;;;;;;;5.03;4.53;;;18.30;99.90;;;;;;5074832;28;20466;-74
2022/06/04 09:38:40;;;;;;;4.37;3.97;;;18.30;99.90;;;;;;5074425;28;20448;-75
2022/06/04 09:41:18;;;;;;;4.53;3.63;;;18.40;99.90;;;;;;5074336;28;20531;-75
2022/06/04 09:43:45;;;;;;;4.80;4.00;;;18.40;99.90;;;;;;5075381;28;20521;-67
2022/06/04 09:46:13;;;;;;;5.10;4.67;;;18.50;99.90;;;;;;5075018;28;20449;-67
2022/06/04 09:48:47;;;;;;;4.53;4.00;;;18.80;99.90;;;;;;5071877;28;20455;-75
2022/06/04 09:51:23;;;;;;;4.57;4.00;;;19.00;99.90;;;;;;5074963;28;20408;-73
2022/06/04 09:53:54;;;;;;;6.00;3.60;;;18.90;99.90;;;;;;5074917;28;20403;-66
2022/06/04 09:56:41;;;;;;;5.40;3.60;;;19.00;99.90;;;;;;5074795;28;20412;-67
2022/06/04 09:59:30;;;;;;;5.57;4.07;;;19.60;99.90;;;;;;5075041;28;20513;-66
2022/06/04 10:02:22;;;;;;;5.40;4.10;;;19.60;99.90;;;;;;5074913;28;20547;-67
2022/06/04 10:04:58;;;;;;;4.10;3.80;;;19.90;99.90;;;;;;5072567;28;20432;-74
2022/06/04 10:07:39;;;;;;;5.03;4.53;;;19.90;99.90;;;;;;5074033;28;20780;-74
2022/06/04 10:10:27;;;;;;;4.27;3.87;;;20.10;99.90;;;;;;5075479;28;20395;-68
2022/06/04 10:15:49;;;;;;;5.13;3.40;;;19.90;99.90;;;;;;5074611;28;20891;-66
2022/06/04 10:18:22;;;;;;;5.33;3.57;;;20.40;99.90;;;;;;5073288;28;20428;-67
2022/06/04 10:21:05;;;;;;;3.20;2.73;;;20.70;99.90;;;;;;5072171;28;20438;-66
2022/06/04 10:23:41;;;;;;;3.97;3.60;;;20.90;99.90;;;;;;5074388;28;20538;-74
2022/06/04 10:26:13;;;;;;;3.63;3.33;;;20.90;99.90;;;;;;5074392;28;20881;-70
2022/06/04 10:28:54;;;;;;;3.77;3.47;;;21.10;99.90;;;;;;5073414;28;20429;-67
2022/06/04 10:31:38;;;;;;;4.03;3.27;;;21.40;99.90;;;;;;5075313;28;20458;-66
2022/06/04 10:34:36;;;;;;;7.00;3.50;;;21.60;99.60;;;;;;5074233;28;20955;-66
2022/06/04 10:37:29;;;;;;;3.67;3.47;;;21.80;99.90;;;;;;5060140;28;20435;-66
2022/06/04 10:40:12;;;;;;;3.30;3.00;;;22.10;98.40;;;;;;5073984;28;20793;-73
2022/06/04 10:42:55;;;;;;;3.70;3.40;;;22.30;96.60;;;;;;5072643;28;20455;-66
2022/06/04 10:45:32;;;;;;;3.97;3.67;;;21.90;96.40;;;;;;5073900;28;20904;-67
2022/06/04 10:48:24;;;;;;;5.03;3.13;;;21.80;96.40;;;;;;5073084;28;20416;-66
2022/06/04 10:53:51;;;;;;;4.83;3.57;;;21.70;96.40;;;;;;5072762;28;20498;-74
2022/06/04 10:56:30;;;;;;;3.63;3.33;;;22.00;96.40;;;;;;5073580;28;20424;-72
2022/06/04 10:59:22;;;;;;;6.10;3.30;;;22.10;96.50;;;;;;5072577;28;20977;-74
2022/06/04 11:02:10;;;;;;;3.27;3.07;;;22.60;96.70;;;;;;5070430;28;20464;-66
2022/06/04 11:04:50;;;;;;;4.37;3.60;;;22.80;96.00;;;;;;5073620;28;20401;-74
2022/06/04 11:07:48;;;;;;;3.93;3.60;;;22.60;91.60;;;;;;5072704;28;20404;-68
2022/06/04 11:10:17;;;;;;;3.73;3.37;;;22.60;92.20;;;;;;5071672;28;20428;-66
2022/06/04 11:12:55;;;;;;;3.33;3.03;;;23.00;92.60;;;;;;5073191;28;20411;-67
2022/06/04 11:15:44;;;;;;;3.63;3.30;;;23.00;90.00;;;;;;5073567;28;20419;-73
2022/06/04 11:18:18;;;;;;;3.67;3.33;;;23.00;92.20;;;;;;5070934;28;20440;-73
2022/06/04 11:21:08;;;;;;;3.80;3.40;;;23.40;88.00;;;;;;5073326;28;20885;-74
2022/06/04 11:23:50;;;;;;;3.53;3.23;;;24.10;86.70;;;;;;5073294;28;20554;-74
2022/06/04 11:26:30;;;;;;;4.03;3.20;;;24.50;78.30;;;;;;5073227;28;20956;-67
2022/06/04 11:28:56;;;;;;;7.67;3.77;;;24.20;70.10;;;;;;5052571;28;20519;-74
2022/06/04 11:31:39;;;;;;;3.63;3.33;;;23.90;67.00;;;;;;5053300;28;20739;-74
2022/06/04 11:34:35;;;;;;;3.90;2.90;;;24.00;63.60;;;;;;5062891;28;20543;-74
2022/06/04 11:37:19;;;;;;;5.07;3.60;;;24.20;64.90;;;;;;5072320;28;20491;-67
2022/06/04 11:40:03;;;;;;;3.67;3.37;;;24.30;60.50;;;;;;5073203;28;20924;-73
2022/06/04 11:42:34;;;;;;;4.40;2.90;;;24.90;68.80;;;;;;5073183;28;20944;-66
2022/06/04 11:45:06;;;;;;;3.50;3.23;;;25.20;70.80;;;;;;5071911;28;20901;-67
2022/06/04 11:47:40;;;;;;;3.90;3.50;;;25.30;66.40;;;;;;5069576;28;20781;-66
2022/06/04 11:50:25;;;;;;;3.47;3.00;;;25.40;57.20;;;;;;5072507;28;20396;-67
2022/06/04 11:53:19;;;;;;;4.50;3.60;;;25.50;47.00;;;;;;5073036;28;20408;-68
2022/06/04 11:56:04;;;;;;;3.53;3.23;;;25.40;49.60;;;;;;5071789;28;20511;-66
2022/06/04 11:58:54;;;;;;;5.20;3.70;;;24.90;47.40;;;;;;5072124;28;20522;-66
2022/06/04 12:01:39;;;;;;;4.50;3.60;;;24.10;43.00;;;;;;5072910;28;20416;-67
2022/06/04 12:04:35;;;;;;;4.53;3.43;;;24.10;45.50;;;;;;5071575;28;20824;-66
2022/06/04 12:07:19;;;;;;;3.63;3.33;;;24.50;44.50;;;;;;5072109;28;20401;-74
2022/06/04 12:09:51;;;;;;;4.40;3.33;;;24.60;45.70;;;;;;5072347;28;20455;-74
2022/06/04 12:12:33;;;;;;;4.53;3.20;;;24.60;40.30;;;;;;5072851;28;20531;-66
2022/06/04 12:15:23;;;;;;;4.37;3.90;;;24.50;36.30;;;;;;5072851;28;20392;-67
2022/06/04 12:17:59;;;;;;;4.87;4.47;;;24.30;39.90;;;;;;5071956;28;20395;-75
2022/06/04 12:26:23;;;;;;;5.80;3.33;;;24.30;34.30;;;;;;5072478;28;21165;-73
2022/06/04 12:28:49;;;;;;;4.70;3.80;;;23.90;29.00;;;;;;5070618;28;20432;-67
2022/06/04 12:31:53;;;;;;;7.10;3.77;;;23.70;32.10;;;;;;5072792;28;20412;-72
2022/06/04 12:34:40;;;;;;;4.00;3.53;;;24.10;33.60;;;;;;5068826;28;20420;-67
2022/06/04 12:37:22;;;;;;;3.83;3.43;;;24.10;42.20;;;;;;5069521;28;20816;-74
2022/06/04 12:39:48;;;;;;;4.47;3.57;;;24.30;33.10;;;;;;5072538;28;20947;-74
2022/06/04 12:42:25;;;;;;;3.50;3.20;;;24.20;40.80;;;;;;5072178;28;20523;-73
2022/06/04 12:45:00;;;;;;;3.90;3.60;;;24.10;34.10;;;;;;5075990;28;20162;-67
2022/06/04 12:47:33;;;;;;;4.03;3.63;;;23.40;26.30;;;;;;5075251;28;20392;-67
2022/06/04 12:50:15;;;;;;;4.17;3.60;;;23.20;34.80;;;;;;5076207;28;20412;-74
2022/06/04 12:52:46;;;;;;;4.00;3.60;;;23.30;31.20;;;;;;5075187;28;20392;-67
2022/06/04 12:55:25;;;;;;;4.00;3.60;;;23.20;29.60;;;;;;5075472;28;20409;-73
2022/06/04 12:57:51;;;;;;;3.77;3.37;;;23.20;31.20;;;;;;5075135;28;20431;-69
2022/06/04 13:00:18;;;;;;;5.80;3.47;;;23.30;37.10;;;;;;5075697;28;20408;-76
2022/06/04 13:02:59;;;;;;;6.07;3.77;;;24.00;38.70;;;;;;5075543;28;20983;-76
2022/06/04 13:05:27;;;;;;;4.07;3.67;;;24.50;40.50;;;;;;5075850;28;20396;-68
2022/06/04 13:08:07;;;;;;;3.53;3.23;;;24.30;30.60;;;;;;5074873;28;20483;-73
2022/06/04 13:10:44;;;;;;;6.67;3.70;;;24.20;26.00;;;;;;5074401;28;20427;-74
2022/06/04 13:13:22;;;;;;;4.23;3.63;;;23.80;27.60;;;;;;5075860;28;20400;-69
2022/06/04 13:15:56;;;;;;;7.13;3.80;;;24.50;36.30;;;;;;5075740;28;20396;-69
2022/06/04 13:18:37;;;;;;;3.67;3.20;;;25.40;39.70;;;;;;5074255;28;20431;-76
2022/06/04 13:21:14;;;;;;;4.13;3.70;;;25.40;28.60;;;;;;5075802;28;20490;-66
2022/06/04 13:23:39;;;;;;;3.87;3.17;;;25.30;24.10;;;;;;5075532;28;20447;-66
2022/06/04 13:26:28;;;;;;;3.30;2.90;;;24.70;24.10;;;;;;5075181;28;20897;-70
2022/06/04 13:28:54;;;;;;;3.60;3.13;;;25.10;29.30;;;;;;5055413;28;20318;-74
2022/06/04 13:31:29;;;;;;;4.40;3.50;;;25.60;35.70;;;;;;5055569;28;20937;-66
2022/06/04 13:33:58;;;;;;;3.60;3.30;;;24.90;26.00;;;;;;5055357;28;20202;-70
2022/06/04 13:36:30;;;;;;;4.07;3.47;;;24.30;21.10;;;;;;5054116;28;20506;-73
2022/06/04 13:38:58;;;;;;;5.97;3.70;;;23.00;14.50;;;;;;5054721;28;20476;-74
2022/06/04 13:44:28;;;;;;;5.23;3.30;;;22.60;25.70;;;;;;5068483;28;20447;-73
2022/06/04 13:47:21;;;;;;;5.50;4.50;;;22.70;29.80;;;;;;5073154;28;20417;-73
2022/06/04 13:50:08;;;;;;;3.87;3.40;;;22.70;21.90;;;;;;5072246;28;20456;-67